Time;durP1;ratioP1;P1;durP2;ratioP2;P2;SDS_P1;SDS_P2;PMS_P1;PMS_P2;Temp;Humidity;BMP_temperature;BMP_pressure;BME280_temperature;BME280_humidity;BME280_pressure;Samples;Min_cycle;Max_cycle;Signal;HPM_P1;HPM_P2
2022/04/23 00:00:41;;;;;;;;;6.80;5.00;;;;;15.62;69.51;98273.41;5049427;28;8868;-79
2022/04/23 00:03:14;;;;;;;;;6.00;5.40;;;;;15.70;68.71;98268.69;5063567;28;8840;-79
2022/04/23 00:05:42;;;;;;;;;5.40;5.00;;;;;15.76;68.38;98268.44;5049698;28;8891;-78
2022/04/23 00:08:11;;;;;;;;;6.60;6.60;;;;;15.83;68.32;98269.06;5047986;28;8879;-78
2022/04/23 00:10:39;;;;;;;;;4.80;4.60;;;;;15.86;67.48;98276.81;5049873;28;9606;-80
2022/04/23 00:13:09;;;;;;;;;4.40;4.40;;;;;15.91;67.89;98267.78;5086874;28;8838;-78
2022/04/23 00:15:38;;;;;;;;;5.40;4.60;;;;;15.91;67.00;98262.53;5070514;28;8942;-79
2022/04/23 00:18:07;;;;;;;;;3.80;3.80;;;;;15.85;65.92;98261.97;5037534;28;8841;-78
2022/04/23 00:20:38;;;;;;;;;6.60;3.80;;;;;15.83;66.49;98272.53;5036898;28;8869;-78
2022/04/23 00:23:07;;;;;;;;;7.00;5.60;;;;;15.87;66.16;98265.38;5053628;28;8968;-78
2022/04/23 00:25:37;;;;;;;;;3.20;3.20;;;;;15.83;65.21;98277.78;5020042;28;8853;-80
2022/04/23 00:28:07;;;;;;;;;5.20;5.20;;;;;15.71;65.65;98273.88;5069945;28;8841;-79
2022/04/23 00:30:35;;;;;;;;;6.00;5.80;;;;;15.54;65.89;98273.75;5086778;28;8949;-78
2022/04/23 00:33:04;;;;;;;;;5.40;5.20;;;;;15.36;66.91;98280.59;5086546;28;8887;-78
2022/04/23 00:35:33;;;;;;;;;7.00;5.20;;;;;15.32;67.62;98279.00;5086340;28;8849;-78
2022/04/23 00:38:04;;;;;;;;;4.00;4.00;;;;;15.29;67.51;98277.38;5069487;28;8904;-78
2022/04/23 00:40:33;;;;;;;;;5.00;5.00;;;;;15.39;67.64;98275.22;5086464;28;8850;-79
2022/04/23 00:43:05;;;;;;;;;7.20;6.00;;;;;15.39;67.08;98283.09;5069473;28;8849;-78
2022/04/23 00:45:34;;;;;;;;;3.40;3.40;;;;;15.51;66.88;98287.00;5086396;28;8830;-78
2022/04/23 00:48:03;;;;;;;;;10.00;7.40;;;;;15.57;66.54;98282.31;5088311;28;8888;-80
2022/04/23 00:50:32;;;;;;;;;4.20;3.20;;;;;15.64;66.35;98280.31;5029546;28;8910;-80
2022/04/23 00:53:04;;;;;;;;;3.20;3.20;;;;;15.70;66.11;98284.47;5052688;28;8864;-78
2022/04/23 00:55:34;;;;;;;;;4.00;4.00;;;;;15.72;65.87;98288.72;5069668;28;8889;-78
2022/04/23 00:58:03;;;;;;;;;5.60;4.80;;;;;15.77;65.50;98283.31;5036916;28;8852;-79
2022/04/23 01:00:33;;;;;;;;;6.00;5.80;;;;;15.76;65.11;98281.59;5053327;28;8871;-78
2022/04/23 01:03:01;;;;;;;;;5.80;5.40;;;;;15.78;65.35;98277.13;5036691;28;8871;-78
2022/04/23 01:05:31;;;;;;;;;5.40;4.20;;;;;15.76;65.50;98281.59;5053347;28;8977;-79
2022/04/23 01:08:02;;;;;;;;;5.00;5.00;;;;;15.76;65.37;98286.84;5069327;28;8847;-78
2022/04/23 01:10:33;;;;;;;;;5.00;4.00;;;;;15.73;65.60;98290.47;5052997;28;8856;-79
2022/04/23 01:13:02;;;;;;;;;3.40;3.40;;;;;15.71;65.44;98284.41;5069892;28;8844;-79
2022/04/23 01:15:31;;;;;;;;;5.00;4.60;;;;;15.76;65.67;98282.47;5069454;28;8824;-79
2022/04/23 01:18:00;;;;;;;;;5.40;4.80;;;;;15.81;65.16;98287.53;5069647;28;8870;-78
2022/04/23 01:20:30;;;;;;;;;5.00;4.40;;;;;15.88;64.97;98290.72;5069660;28;8882;-79
2022/04/23 01:22:58;;;;;;;;;5.00;4.00;;;;;15.93;64.77;98287.00;5070037;28;8990;-78
2022/04/23 01:25:27;;;;;;;;;5.60;5.60;;;;;15.98;65.01;98284.19;5071152;28;8839;-78
2022/04/23 01:27:56;;;;;;;;;5.00;4.00;;;;;16.04;65.10;98291.78;5052471;28;8849;-78
2022/04/23 01:30:25;;;;;;;;;4.40;4.40;;;;;16.09;64.78;98294.25;5052404;28;8891;-78
2022/04/23 01:32:53;;;;;;;;;5.00;5.00;;;;;16.13;64.77;98293.19;5065953;28;8872;-79
2022/04/23 01:35:22;;;;;;;;;7.20;7.00;;;;;15.11;67.55;98307.81;5067684;28;8887;-78
2022/04/23 01:37:52;;;;;;;;;8.00;7.60;;;;;13.67;76.07;98323.44;5016826;28;8857;-79
2022/04/23 01:40:21;;;;;;;;;7.40;6.00;;;;;13.10;80.83;98331.31;5049360;28;8849;-78
2022/04/23 01:42:49;;;;;;;;;9.00;8.00;;;;;12.91;83.00;98330.13;5084187;28;8924;-79
2022/04/23 01:45:18;;;;;;;;;8.00;7.60;;;;;13.08;82.32;98325.28;5050340;28;8837;-79
2022/04/23 01:47:46;;;;;;;;;6.20;6.20;;;;;13.19;81.21;98324.91;5085078;28;9696;-79
2022/04/23 01:50:15;;;;;;;;;7.80;5.00;;;;;13.33;80.19;98333.25;5064114;28;9005;-78
2022/04/23 01:52:43;;;;;;;;;7.40;6.00;;;;;13.25;80.66;98338.69;5054909;28;8850;-79
2022/04/23 01:55:14;;;;;;;;;7.00;5.20;;;;;12.81;83.39;98347.84;5072212;28;8862;-77
2022/04/23 01:57:42;;;;;;;;;10.60;9.00;;;;;12.74;85.21;98341.97;5053136;28;8850;-79
2022/04/23 02:00:13;;;;;;;;;8.40;8.00;;;;;12.76;85.20;98344.50;5069664;28;9608;-78
2022/04/23 02:02:43;;;;;;;;;8.60;6.20;;;;;13.05;83.98;98335.81;5087757;28;8884;-78
2022/04/23 02:05:12;;;;;;;;;9.00;9.00;;;;;13.38;81.88;98339.22;5049748;28;8883;-77
2022/04/23 02:07:41;;;;;;;;;8.60;8.00;;;;;13.71;79.41;98331.16;5000032;28;8853;-78
2022/04/23 02:10:13;;;;;;;;;9.40;8.40;;;;;14.01;77.99;98333.66;5051600;28;8848;-78
2022/04/23 02:12:42;;;;;;;;;6.00;6.00;;;;;14.25;76.52;98329.31;5049667;28;8856;-77
2022/04/23 02:15:12;;;;;;;;;9.80;8.40;;;;;14.47;75.41;98333.81;5049512;28;8853;-78
2022/04/23 02:17:43;;;;;;;;;10.00;8.40;;;;;14.66;74.25;98328.78;5050826;28;8845;-78
2022/04/23 02:20:13;;;;;;;;;10.00;9.00;;;;;14.82;73.59;98328.16;5051390;28;9744;-76
2022/04/23 02:22:42;;;;;;;;;6.80;4.60;;;;;14.96;72.77;98322.38;5052379;28;8930;-79
2022/04/23 02:25:11;;;;;;;;;10.40;6.40;;;;;15.11;72.09;98334.06;5028064;28;8842;-80
2022/04/23 02:27:45;;;;;;;;;9.00;6.40;;;;;15.22;71.61;98331.03;5069939;28;8854;-80
2022/04/23 02:30:15;;;;;;;;;9.60;8.80;;;;;15.21;71.37;98337.19;5071048;28;9598;-78
2022/04/23 02:32:45;;;;;;;;;10.20;9.60;;;;;15.31;70.94;98335.06;5086370;28;8866;-79
2022/04/23 02:35:14;;;;;;;;;9.40;7.80;;;;;15.39;70.77;98339.09;5086375;28;8877;-78
2022/04/23 02:37:44;;;;;;;;;8.40;7.20;;;;;15.49;70.57;98334.34;5070681;28;9688;-78
2022/04/23 02:40:14;;;;;;;;;10.80;7.60;;;;;15.56;69.70;98335.81;5034763;28;8858;-78
2022/04/23 02:42:44;;;;;;;;;8.20;7.60;;;;;15.62;69.47;98334.72;5103217;28;8960;-79
2022/04/23 02:45:15;;;;;;;;;11.20;7.40;;;;;15.67;69.16;98326.63;5069324;28;8838;-78
2022/04/23 02:47:44;;;;;;;;;11.40;10.00;;;;;15.71;68.43;98325.59;5070688;28;8850;-78
2022/04/23 02:50:14;;;;;;;;;10.40;8.80;;;;;15.71;67.88;98331.72;5070696;28;8854;-77
2022/04/23 02:52:44;;;;;;;;;9.40;7.20;;;;;15.68;67.88;98323.94;5056208;28;9606;-78
2022/04/23 02:55:13;;;;;;;;;10.00;8.60;;;;;15.72;68.28;98332.56;5015109;28;8861;-78
2022/04/23 02:57:42;;;;;;;;;12.20;12.20;;;;;15.71;67.45;98328.22;5065615;28;8864;-78
2022/04/23 03:00:12;;;;;;;;;12.40;10.60;;;;;15.65;68.35;98323.19;5082305;28;8861;-77
2022/04/23 03:02:42;;;;;;;;;12.20;12.20;;;;;15.64;68.38;98319.72;5049912;28;8855;-77
2022/04/23 03:05:14;;;;;;;;;12.80;12.80;;;;;15.65;68.85;98324.09;5082387;28;8837;-78
2022/04/23 03:07:43;;;;;;;;;13.00;13.00;;;;;15.64;68.98;98319.72;5082550;28;9631;-78
2022/04/23 03:10:14;;;;;;;;;16.00;13.80;;;;;15.62;68.97;98325.97;5032313;28;8864;-78
2022/04/23 03:12:42;;;;;;;;;12.00;10.40;;;;;15.51;68.85;98326.41;5048732;28;8967;-79
2022/04/23 03:15:13;;;;;;;;;14.00;12.00;;;;;15.48;68.86;98324.75;5050426;28;8853;-78
2022/04/23 03:17:42;;;;;;;;;9.60;9.60;;;;;15.43;68.51;98324.09;5050535;28;8946;-79
2022/04/23 03:20:12;;;;;;;;;12.80;11.60;;;;;15.42;68.74;98332.88;5050468;28;8861;-80
2022/04/23 03:22:42;;;;;;;;;13.20;11.40;;;;;15.38;68.77;98328.66;5048701;28;8841;-79
2022/04/23 03:25:11;;;;;;;;;12.80;12.00;;;;;15.34;69.00;98329.69;5049184;28;8829;-78
2022/04/23 03:27:40;;;;;;;;;12.20;10.80;;;;;15.31;68.76;98329.81;5065123;28;8852;-78
2022/04/23 03:30:09;;;;;;;;;9.00;7.00;;;;;15.32;68.65;98326.28;5048867;28;8983;-79
2022/04/23 03:32:41;;;;;;;;;11.80;10.40;;;;;15.31;68.69;98324.56;5049434;28;9701;-79
2022/04/23 03:35:10;;;;;;;;;9.80;9.80;;;;;15.30;68.64;98323.72;5048195;28;8929;-77
2022/04/23 03:37:40;;;;;;;;;9.60;8.00;;;;;15.33;68.63;98327.97;5031977;28;8864;-79
2022/04/23 03:40:10;;;;;;;;;8.80;8.20;;;;;15.34;68.19;98324.44;5082175;28;8979;-78
2022/04/23 03:42:39;;;;;;;;;26.00;21.00;;;;;15.38;68.10;98328.66;5048475;28;8864;-78
2022/04/23 03:45:09;;;;;;;;;58.75;48.25;;;;;15.39;67.69;98328.59;5064764;28;9622;-79
2022/04/23 03:47:45;;;;;;;;;14.80;13.60;;;;;15.40;67.46;98330.28;5048525;28;8864;-78
2022/04/23 03:50:15;;;;;;;;;14.20;14.20;;;;;15.42;67.08;98332.88;5051914;28;8907;-80
2022/04/23 03:52:44;;;;;;;;;11.60;10.00;;;;;15.46;67.75;98334.44;5034480;28;8892;-78
2022/04/23 03:55:13;;;;;;;;;12.00;11.80;;;;;15.49;67.31;98339.59;5051615;28;8874;-78
2022/04/23 03:57:47;;;;;;;;;10.60;8.80;;;;;15.47;67.49;98343.22;5068098;28;8854;-79
2022/04/23 04:00:17;;;;;;;;;10.00;9.60;;;;;15.51;67.65;98340.38;5085057;28;8896;-78
2022/04/23 04:02:47;;;;;;;;;19.20;17.60;;;;;15.58;67.56;98347.13;5056517;28;8853;-80
2022/04/23 04:05:16;;;;;;;;;18.80;13.40;;;;;15.49;67.84;98344.00;5050001;28;8865;-80
2022/04/23 04:07:46;;;;;;;;;11.00;10.60;;;;;15.40;68.71;98347.84;5065171;28;8860;-78
2022/04/23 04:10:17;;;;;;;;;18.40;15.60;;;;;15.31;69.19;98345.56;5030907;28;8995;-78
2022/04/23 04:12:46;;;;;;;;;17.00;13.20;;;;;15.11;69.67;98347.22;5049153;28;8888;-79
2022/04/23 04:15:16;;;;;;;;;14.60;14.20;;;;;15.19;69.37;98355.63;5019799;28;8845;-78
2022/04/23 04:17:49;;;;;;;;;13.60;13.40;;;;;15.27;68.81;98346.59;5090102;28;8870;-78
2022/04/23 04:20:20;;;;;;;;;19.40;18.00;;;;;15.07;69.99;98352.66;5048556;28;8844;-78
2022/04/23 04:22:49;;;;;;;;;17.00;15.80;;;;;15.13;69.98;98352.41;5081136;28;8935;-78
2022/04/23 04:25:18;;;;;;;;;55.25;46.00;;;;;15.18;69.68;98342.59;5048023;28;8870;-78
2022/04/23 04:27:47;;;;;;;;;19.80;17.60;;;;;14.82;71.16;98357.03;5081379;28;8905;-78
2022/04/23 04:30:15;;;;;;;;;29.00;27.20;;;;;15.02;70.61;98355.44;5049719;28;8880;-78
2022/04/23 04:32:53;;;;;;;;;30.50;29.25;;;;;15.19;70.39;98355.63;5049288;28;8837;-78
2022/04/23 04:35:21;;;;;;;;;11.40;9.60;;;;;15.09;70.80;98358.69;5030407;28;8837;-78
2022/04/23 04:37:50;;;;;;;;;11.40;10.60;;;;;15.16;69.98;98361.03;5048802;28;8986;-78
2022/04/23 04:40:18;;;;;;;;;15.80;15.00;;;;;15.19;69.74;98360.03;5048951;28;8860;-77
2022/04/23 04:42:47;;;;;;;;;15.60;14.40;;;;;15.21;70.18;98366.94;5080903;28;8865;-79
2022/04/23 04:45:15;;;;;;;;;17.60;17.40;;;;;15.43;69.96;98373.16;5047552;28;8829;-79
2022/04/23 04:47:44;;;;;;;;;19.00;16.80;;;;;15.60;69.06;98375.97;5047801;28;8829;-79
2022/04/23 04:50:13;;;;;;;;;19.40;18.40;;;;;15.75;68.70;98379.78;5048472;28;8849;-78
2022/04/23 04:52:42;;;;;;;;;20.40;19.60;;;;;15.79;68.31;98376.09;5048868;28;8967;-78
2022/04/23 04:55:11;;;;;;;;;14.40;13.40;;;;;15.60;68.41;98384.69;5049073;28;8864;-78
2022/04/23 04:57:39;;;;;;;;;20.40;18.40;;;;;15.55;68.62;98389.25;5048838;28;9630;-78
2022/04/23 05:00:10;;;;;;;;;17.60;15.00;;;;;15.54;68.29;98386.72;5047776;28;9712;-77
2022/04/23 05:02:39;;;;;;;;;16.20;15.00;;;;;15.51;68.59;98394.72;5048575;28;8848;-78
2022/04/23 05:05:09;;;;;;;;;17.80;14.20;;;;;15.67;68.05;98387.94;5048639;28;8942;-79
2022/04/23 05:07:39;;;;;;;;;17.00;15.40;;;;;15.83;67.81;98395.25;5014304;28;8979;-78
2022/04/23 05:10:09;;;;;;;;;19.40;18.00;;;;;15.96;67.50;98399.94;5062986;28;8857;-79
2022/04/23 05:12:37;;;;;;;;;14.20;14.20;;;;;16.10;67.10;98403.75;5030702;28;8882;-78
2022/04/23 05:15:06;;;;;;;;;16.60;15.20;;;;;16.21;67.03;98404.16;5013601;28;8856;-78
2022/04/23 05:17:38;;;;;;;;;17.40;16.20;;;;;16.31;66.73;98410.78;5064423;28;8887;-78
2022/04/23 05:20:08;;;;;;;;;16.20;15.80;;;;;16.33;66.30;98408.06;5030055;28;8856;-78
2022/04/23 05:22:37;;;;;;;;;24.00;21.60;;;;;16.42;66.49;98414.72;5048274;28;8876;-78
2022/04/23 05:25:08;;;;;;;;;33.75;30.50;;;;;16.48;66.21;98417.06;5046762;28;8857;-78
2022/04/23 05:27:36;;;;;;;;;20.40;20.40;;;;;16.54;66.08;98420.31;5050745;28;8845;-78
2022/04/23 05:30:06;;;;;;;;;13.20;12.00;;;;;16.66;66.05;98418.06;5050440;28;8864;-77
2022/04/23 05:32:35;;;;;;;;;19.00;14.80;;;;;16.36;66.36;98421.09;5048674;28;8853;-78
2022/04/23 05:35:10;;;;;;;;;19.60;16.60;;;;;16.42;65.87;98430.50;5048780;28;8876;-78
2022/04/23 05:37:39;;;;;;;;;20.80;20.40;;;;;16.51;66.45;98428.31;5067081;28;8857;-79
2022/04/23 05:40:10;;;;;;;;;25.40;24.00;;;;;16.69;66.13;98428.44;5052017;28;8868;-77
2022/04/23 05:42:40;;;;;;;;;17.20;16.20;;;;;16.85;65.59;98436.59;5067206;28;8872;-77
2022/04/23 05:45:09;;;;;;;;;35.75;30.50;;;;;16.92;65.67;98430.97;5070591;28;8881;-79
2022/04/23 05:47:40;;;;;;;;;26.75;24.75;;;;;16.75;65.58;98436.09;5087584;28;8987;-77
2022/04/23 05:50:10;;;;;;;;;27.25;27.25;;;;;16.76;64.85;98435.16;5032624;28;8870;-78
2022/04/23 05:52:39;;;;;;;;;26.50;24.50;;;;;16.67;65.04;98440.81;5036007;28;8856;-78
2022/04/23 05:55:10;;;;;;;;;25.25;24.00;;;;;16.70;65.45;98436.28;5012668;28;8906;-80
2022/04/23 05:57:39;;;;;;;;;24.00;20.60;;;;;16.81;65.15;98442.88;4996426;28;8845;-79
2022/04/23 06:00:10;;;;;;;;;119.00;111.25;;;;;16.79;63.42;98442.94;4996347;28;8934;-79
2022/04/23 06:02:41;;;;;;;;;40.50;36.50;;;;;16.86;63.17;98449.69;5012404;28;11598;-78
2022/04/23 06:05:11;;;;;;;;;20.20;20.20;;;;;16.89;63.84;98448.69;5028741;28;8883;-77
2022/04/23 06:07:39;;;;;;;;;22.00;20.40;;;;;17.07;63.92;98455.78;5011739;28;8877;-79
2022/04/23 06:10:10;;;;;;;;;20.40;19.20;;;;;17.27;63.69;98461.94;4973394;28;8877;-79
2022/04/23 06:12:39;;;;;;;;;14.20;12.20;;;;;17.51;61.45;98462.59;4989356;28;8868;-79
2022/04/23 06:15:09;;;;;;;;;12.60;11.80;;;;;17.77;60.62;98461.38;4989421;28;8894;-79
2022/04/23 06:17:38;;;;;;;;;17.00;15.80;;;;;18.04;60.19;98466.28;4973597;28;9633;-78
2022/04/23 06:20:08;;;;;;;;;27.20;25.00;;;;;18.20;59.09;98469.00;5001620;28;9010;-79
2022/04/23 06:22:36;;;;;;;;;43.25;36.50;;;;;18.01;57.95;98467.25;4977309;28;8924;-79
2022/04/23 06:25:06;;;;;;;;;18.60;18.60;;;;;18.01;58.99;98474.34;5010826;28;9730;-79
2022/04/23 06:27:37;;;;;;;;;9.00;9.00;;;;;18.06;58.64;98478.47;5025818;28;8880;-79
2022/04/23 06:30:09;;;;;;;;;13.00;12.80;;;;;18.24;58.93;98482.00;5032954;28;9736;-79
2022/04/23 06:32:38;;;;;;;;;13.00;13.00;;;;;18.42;59.42;98488.16;5031807;28;9077;-78
2022/04/23 06:35:07;;;;;;;;;9.00;9.00;;;;;18.57;59.70;98483.88;5034329;28;8985;-80
2022/04/23 06:37:40;;;;;;;;;13.40;13.00;;;;;18.70;59.37;98484.97;5055628;28;8939;-80
2022/04/23 06:40:12;;;;;;;;;9.60;8.80;;;;;18.55;56.82;98483.13;4999272;28;8868;-79
2022/04/23 06:42:43;;;;;;;;;13.80;11.20;;;;;18.64;57.59;98492.38;5050173;28;8886;-79
2022/04/23 06:45:13;;;;;;;;;12.20;11.60;;;;;18.69;57.90;98487.69;5050318;28;8856;-80
2022/04/23 06:47:41;;;;;;;;;14.80;13.20;;;;;17.82;59.93;98500.69;5048291;28;8857;-78
2022/04/23 06:50:11;;;;;;;;;12.40;9.80;;;;;17.77;58.83;98503.56;5032711;28;8864;-79
2022/04/23 06:52:40;;;;;;;;;10.60;9.00;;;;;17.99;58.22;98497.28;5051069;28;8898;-79
2022/04/23 06:55:09;;;;;;;;;8.00;8.00;;;;;17.87;57.95;98494.31;5068406;28;8853;-79
2022/04/23 06:57:45;;;;;;;;;31.75;29.75;;;;;18.04;56.64;98496.16;5059702;28;8902;-79
2022/04/23 07:00:14;;;;;;;;;11.60;9.60;;;;;18.24;55.59;98505.75;5084430;28;8864;-79
2022/04/23 07:02:43;;;;;;;;;11.80;11.80;;;;;17.49;57.55;98499.56;5065305;28;8860;-79
2022/04/23 07:05:12;;;;;;;;;6.40;6.00;;;;;16.91;58.05;98515.31;5049665;28;8848;-79
2022/04/23 07:07:40;;;;;;;;;30.80;29.60;;;;;16.44;60.40;98516.34;5048371;28;8845;-79
2022/04/23 07:10:09;;;;;;;;;7.20;7.20;;;;;16.97;59.82;98517.66;5050010;28;8841;-80
2022/04/23 07:12:38;;;;;;;;;9.60;9.60;;;;;16.75;61.50;98515.94;4999129;28;8915;-80
2022/04/23 07:15:09;;;;;;;;;11.20;10.20;;;;;17.13;59.92;98518.72;5048335;28;9694;-80
2022/04/23 07:17:38;;;;;;;;;7.00;6.20;;;;;17.26;57.91;98516.41;5050792;28;8861;-77
2022/04/23 07:20:07;;;;;;;;;5.80;5.60;;;;;16.76;58.69;98522.03;5051094;28;8924;-79
2022/04/23 07:22:36;;;;;;;;;4.20;4.00;;;;;16.51;58.16;98528.34;5065478;28;9626;-79
2022/04/23 07:25:07;;;;;;;;;4.80;3.60;;;;;15.95;60.10;98529.69;5049530;28;8849;-77
2022/04/23 07:27:35;;;;;;;;;3.00;3.00;;;;;15.85;59.79;98530.09;5049508;28;8971;-78
2022/04/23 07:30:05;;;;;;;;;3.20;3.20;;;;;15.79;59.71;98539.94;5064728;28;8865;-78
2022/04/23 07:32:35;;;;;;;;;4.60;4.00;;;;;15.64;60.45;98540.47;5014479;28;8947;-78
2022/04/23 07:37:51;;;;;;;;;5.40;5.40;;;;;16.26;58.65;98527.63;5064706;28;8857;-79
2022/04/23 07:40:20;;;;;;;;;6.80;6.00;;;;;16.74;58.27;98543.16;5049805;28;8879;-77
2022/04/23 07:42:48;;;;;;;;;7.20;6.20;;;;;17.16;56.98;98538.81;5063720;28;8915;-78
2022/04/23 07:45:17;;;;;;;;;6.20;5.00;;;;;16.91;57.31;98552.19;5048045;28;8990;-78
2022/04/23 07:47:47;;;;;;;;;5.60;5.40;;;;;17.09;56.62;98553.19;5064471;28;8841;-78
2022/04/23 07:50:15;;;;;;;;;7.40;5.40;;;;;17.04;57.79;98549.88;5049233;28;8971;-79
2022/04/23 07:52:45;;;;;;;;;6.20;6.00;;;;;17.04;58.57;98552.53;5066891;28;8854;-78
2022/04/23 07:55:13;;;;;;;;;9.20;8.00;;;;;17.52;57.07;98557.41;5049353;28;8873;-77
2022/04/23 07:57:41;;;;;;;;;5.80;5.80;;;;;17.90;57.19;98548.69;5065680;28;8913;-78
2022/04/23 08:00:11;;;;;;;;;4.60;4.60;;;;;17.84;55.19;98555.09;5007035;28;8849;-79
2022/04/23 08:02:39;;;;;;;;;6.40;6.40;;;;;18.24;54.75;98557.66;5006774;28;8991;-78
2022/04/23 08:05:12;;;;;;;;;9.60;8.40;;;;;18.59;54.29;98555.97;5006127;28;8866;-78
2022/04/23 08:07:43;;;;;;;;;9.00;9.00;;;;;17.61;57.13;98566.69;4942735;28;8851;-80
2022/04/23 08:10:11;;;;;;;;;13.80;13.60;;;;;17.52;58.11;98567.09;5006458;28;8842;-79
2022/04/23 08:12:40;;;;;;;;;15.20;12.80;;;;;17.07;60.98;98576.06;5006751;28;9015;-77
2022/04/23 08:15:11;;;;;;;;;15.20;14.00;;;;;17.11;61.55;98572.41;4990234;28;9601;-80
2022/04/23 08:17:40;;;;;;;;;14.20;13.80;;;;;16.29;63.37;98588.84;5006274;28;8880;-78
2022/04/23 08:20:13;;;;;;;;;17.20;14.40;;;;;16.08;65.42;98576.53;4990074;28;8987;-79
2022/04/23 08:22:41;;;;;;;;;15.40;12.40;;;;;15.96;65.86;98589.25;4990140;28;8854;-79
2022/04/23 08:25:11;;;;;;;;;17.80;15.00;;;;;15.87;67.19;98581.72;5009745;28;8856;-79
2022/04/23 08:27:49;;;;;;;;;10.80;10.00;;;;;15.66;67.96;98585.13;5025653;28;8860;-78
2022/04/23 08:30:36;;;;;;;;;13.00;13.00;;;;;15.50;69.07;98583.03;4995600;28;8844;-78
2022/04/23 08:33:06;;;;;;;;;13.20;11.80;;;;;15.56;69.08;98588.06;5066870;28;8838;-78
2022/04/23 08:35:37;;;;;;;;;13.20;13.20;;;;;16.02;67.80;98580.28;5084053;28;8943;-79
2022/04/23 08:38:07;;;;;;;;;14.60;12.20;;;;;16.28;66.10;98589.78;5068159;28;8851;-79
2022/04/23 08:40:37;;;;;;;;;13.80;12.20;;;;;16.67;64.82;98586.50;5083867;28;8834;-79
2022/04/23 08:43:06;;;;;;;;;10.80;9.00;;;;;16.82;63.78;98586.75;5060172;28;8863;-78
2022/04/23 08:45:37;;;;;;;;;17.00;14.20;;;;;16.82;63.74;98585.00;5046799;28;8946;-78
2022/04/23 08:48:09;;;;;;;;;19.40;19.40;;;;;16.65;65.24;98588.31;5048394;28;8863;-80
2022/04/23 08:50:41;;;;;;;;;18.00;16.80;;;;;16.72;64.80;98591.56;5065011;28;8998;-78
2022/04/23 08:53:17;;;;;;;;;19.40;17.00;;;;;16.77;64.78;98594.88;5048762;28;8841;-79
2022/04/23 08:55:56;;;;;;;;;20.20;18.20;;;;;16.75;64.80;98599.34;5102502;28;8991;-80
2022/04/23 08:58:25;;;;;;;;;18.00;18.00;;;;;16.93;64.59;98595.09;5042047;28;8861;-79
2022/04/23 09:00:54;;;;;;;;;20.20;19.80;;;;;16.38;67.39;98592.91;5025814;28;8959;-78
2022/04/23 09:03:23;;;;;;;;;21.20;20.40;;;;;15.69;69.47;98606.88;4993237;28;8858;-78
2022/04/23 09:05:54;;;;;;;;;22.00;21.80;;;;;15.61;68.27;98606.28;5009638;28;8905;-79
2022/04/23 09:08:25;;;;;;;;;21.40;20.40;;;;;15.66;68.34;98595.63;4995981;28;8847;-78
2022/04/23 09:10:54;;;;;;;;;16.20;16.00;;;;;16.24;66.21;98595.22;5032268;28;8846;-78
2022/04/23 09:13:27;;;;;;;;;20.20;20.20;;;;;16.82;65.28;98599.94;5030147;28;8886;-80
2022/04/23 09:24:45;;;;;;;;;12.20;12.20;;;;;16.71;62.27;98595.97;5012749;28;8944;-78
2022/04/23 09:27:14;;;;;;;;;14.80;13.60;;;;;16.71;62.24;98601.22;5029329;28;8888;-77
2022/04/23 09:29:58;;;;;;;;;9.80;9.80;;;;;16.85;61.43;98600.69;5013349;28;8874;-78
2022/04/23 09:32:27;;;;;;;;;17.00;12.20;;;;;17.45;59.50;98602.56;5012919;28;8856;-78
2022/04/23 09:35:07;;;;;;;;;15.20;14.80;;;;;17.04;59.92;98602.56;5030398;28;8861;-78
2022/04/23 09:40:26;;;;;;;;;14.20;14.20;;;;;17.33;59.42;98596.03;5074912;28;8878;-79
2022/04/23 09:42:57;;;;;;;;;18.80;16.80;;;;;17.22;59.11;98599.16;5071863;28;8890;-79
2022/04/23 09:45:29;;;;;;;;;17.80;16.00;;;;;17.21;59.37;98600.06;5072490;28;9035;-79
2022/04/23 09:48:14;;;;;;;;;18.40;15.60;;;;;16.68;61.91;98603.97;5071867;28;8860;-78
2022/04/23 09:50:45;;;;;;;;;18.00;17.00;;;;;16.62;62.71;98609.50;5058135;28;8857;-79
2022/04/23 09:53:16;;;;;;;;;14.80;14.80;;;;;16.43;62.16;98621.69;5051610;28;8938;-79
2022/04/23 09:55:46;;;;;;;;;20.20;16.60;;;;;15.89;63.28;98628.97;5051640;28;8905;-78
2022/04/23 09:58:16;;;;;;;;;18.80;18.40;;;;;15.95;64.44;98632.25;5051585;28;8845;-77
2022/04/23 10:00:47;;;;;;;;;18.20;18.20;;;;;16.05;64.63;98616.09;5085004;28;8856;-78
2022/04/23 10:03:15;;;;;;;;;16.00;15.60;;;;;16.15;63.43;98628.84;5051717;28;8845;-78
2022/04/23 10:05:48;;;;;;;;;17.20;17.20;;;;;16.24;62.58;98616.25;5085042;28;8863;-79
2022/04/23 10:08:23;;;;;;;;;15.40;15.20;;;;;16.70;61.89;98617.94;5068593;28;8872;-80
2022/04/23 10:10:54;;;;;;;;;17.60;17.40;;;;;17.11;60.08;98618.03;5069240;28;8852;-78
2022/04/23 10:13:25;;;;;;;;;10.20;10.20;;;;;17.20;59.20;98615.94;5052924;28;9065;-78
2022/04/23 10:15:54;;;;;;;;;15.80;15.80;;;;;17.78;59.09;98623.09;5052740;28;8890;-80
2022/04/23 10:18:23;;;;;;;;;16.60;16.20;;;;;18.01;57.76;98620.28;5069906;28;8848;-78
2022/04/23 10:20:54;;;;;;;;;16.40;16.40;;;;;18.23;56.45;98614.88;5067392;28;8888;-79
2022/04/23 10:23:43;;;;;;;;;15.80;15.80;;;;;18.74;56.19;98616.88;5039317;28;8888;-78
2022/04/23 10:26:24;;;;;;;;;16.80;16.40;;;;;18.58;54.19;98615.00;5088770;28;8996;-78
2022/04/23 10:28:53;;;;;;;;;15.00;13.60;;;;;18.84;54.23;98610.25;5071544;28;8901;-77
2022/04/23 10:31:23;;;;;;;;;11.00;11.00;;;;;18.66;53.63;98609.34;5088315;28;9507;-79
2022/04/23 10:33:52;;;;;;;;;14.80;14.00;;;;;18.42;55.97;98620.13;5088791;28;8846;-78
2022/04/23 10:36:22;;;;;;;;;12.00;11.60;;;;;18.65;54.53;98610.25;5084340;28;8965;-80
2022/04/23 10:39:22;;;;;;;;;11.80;10.80;;;;;18.33;54.88;98620.56;5086452;28;8854;-77
2022/04/23 10:41:53;;;;;;;;;14.40;13.40;;;;;17.71;57.01;98617.22;5071025;28;8870;-77
2022/04/23 10:44:22;;;;;;;;;12.60;11.60;;;;;17.45;57.39;98624.50;5068383;28;8850;-78
2022/04/23 10:46:56;;;;;;;;;7.80;7.80;;;;;17.07;57.75;98632.28;5071416;28;8848;-79
2022/04/23 10:49:26;;;;;;;;;10.00;9.80;;;;;17.55;57.18;98622.31;5086657;28;8854;-78
2022/04/23 10:51:56;;;;;;;;;9.80;9.20;;;;;17.76;56.48;98628.41;5056371;28;8960;-79
2022/04/23 10:54:59;;;;;;;;;9.00;9.00;;;;;18.14;54.37;98614.44;5066560;28;8884;-77
2022/04/23 10:57:27;;;;;;;;;6.20;6.20;;;;;17.96;52.84;98616.13;5051991;28;8926;-79
2022/04/23 10:59:56;;;;;;;;;8.60;7.40;;;;;17.96;54.13;98626.69;5018971;28;8853;-81
2022/04/23 11:02:33;;;;;;;;;10.60;10.60;;;;;17.71;56.32;98630.41;5016432;28;8895;-80
2022/04/23 11:13:51;;;;;;;;;11.00;9.20;;;;;17.71;56.17;98615.47;5033635;28;8864;-79
2022/04/23 11:16:22;;;;;;;;;8.40;7.40;;;;;17.40;55.69;98615.94;5033267;28;8872;-78
2022/04/23 11:18:53;;;;;;;;;12.20;12.20;;;;;17.11;57.80;98622.47;5015505;28;8841;-79
2022/04/23 11:21:24;;;;;;;;;11.00;11.00;;;;;17.36;57.07;98626.69;5049754;28;8872;-79
2022/04/23 11:23:55;;;;;;;;;11.00;11.00;;;;;17.75;56.48;98618.81;5032218;28;8911;-77
2022/04/23 11:26:42;;;;;;;;;10.80;10.80;;;;;17.64;56.82;98615.78;5049283;28;8857;-78
2022/04/23 11:29:13;;;;;;;;;13.40;13.40;;;;;17.58;55.78;98618.69;5048560;28;8967;-79
2022/04/23 11:31:42;;;;;;;;;11.00;10.40;;;;;17.77;56.40;98626.63;5030928;28;8871;-79
2022/04/23 11:34:13;;;;;;;;;15.60;10.00;;;;;18.03;54.67;98636.88;5048226;28;9563;-79
2022/04/23 11:36:42;;;;;;;;;8.80;8.20;;;;;18.12;52.65;98627.72;5032383;28;8884;-78
2022/04/23 11:39:13;;;;;;;;;8.80;8.80;;;;;18.23;52.73;98619.31;4983114;28;8849;-79
2022/04/23 11:41:44;;;;;;;;;13.60;10.00;;;;;18.20;52.27;98622.06;5051028;28;8942;-80
2022/04/23 11:44:14;;;;;;;;;13.20;12.20;;;;;18.61;52.00;98611.34;5069315;28;8866;-79
2022/04/23 11:46:44;;;;;;;;;12.40;11.60;;;;;18.98;50.55;98618.34;5035047;28;9669;-80
2022/04/23 11:49:26;;;;;;;;;9.80;9.80;;;;;19.06;49.35;98628.53;5070887;28;8900;-78
2022/04/23 11:52:06;;;;;;;;;10.00;10.00;;;;;18.55;50.51;98630.13;5070064;28;8850;-78
2022/04/23 11:54:36;;;;;;;;;15.40;13.80;;;;;18.51;51.47;98637.34;5071481;28;9773;-79
2022/04/23 11:57:08;;;;;;;;;10.40;9.80;;;;;18.45;50.59;98638.47;5085859;28;8854;-78
2022/04/23 11:59:38;;;;;;;;;12.40;11.00;;;;;18.48;51.78;98640.09;5069161;28;8892;-79
2022/04/23 12:02:16;;;;;;;;;11.60;11.20;;;;;18.83;50.46;98635.81;5056030;28;8974;-80
2022/04/23 12:04:48;;;;;;;;;9.60;9.60;;;;;18.68;51.31;98623.31;5050332;28;8861;-80
2022/04/23 12:07:17;;;;;;;;;12.00;11.80;;;;;18.78;51.16;98621.94;5065388;28;8856;-80
2022/04/23 12:09:50;;;;;;;;;13.40;10.20;;;;;18.79;50.74;98620.13;5065490;28;8934;-78